createdAt,value
2017-07-30T00:01:08.589Z,99.90
2017-07-30T00:03:37.813Z,99.90
2017-07-30T00:06:06.223Z,99.90
2017-07-30T00:08:34.663Z,99.90
2017-07-30T00:11:04.534Z,99.90
2017-07-30T00:13:32.979Z,99.90
2017-07-30T00:16:01.400Z,99.90
2017-07-30T00:18:29.467Z,99.90
2017-07-30T00:20:57.891Z,99.90
2017-07-30T00:23:26.360Z,99.90
2017-07-30T00:25:54.818Z,99.90
2017-07-30T00:28:23.244Z,99.90
2017-07-30T00:30:51.762Z,99.90
2017-07-30T00:33:20.238Z,99.90
2017-07-30T00:35:48.671Z,99.90
2017-07-30T00:38:17.820Z,99.90
2017-07-30T00:40:46.336Z,99.90
2017-07-30T00:43:15.527Z,99.90
2017-07-30T00:45:43.981Z,99.90
2017-07-30T00:48:13.113Z,99.90
2017-07-30T00:50:42.423Z,99.90
2017-07-30T00:53:11.611Z,99.90
2017-07-30T00:55:40.794Z,99.90
2017-07-30T00:58:09.235Z,99.90
2017-07-30T01:00:37.654Z,99.90
2017-07-30T01:03:06.250Z,99.90
2017-07-30T01:05:34.681Z,99.90
2017-07-30T01:08:04.691Z,99.90
2017-07-30T01:10:33.138Z,99.90
2017-07-30T01:13:02.323Z,99.90
2017-07-30T01:15:30.707Z,99.90
2017-07-30T01:17:59.174Z,99.90
2017-07-30T01:20:27.610Z,99.90
2017-07-30T01:22:56.030Z,99.90
2017-07-30T01:25:24.461Z,99.90
2017-07-30T01:27:52.973Z,99.90
2017-07-30T01:30:21.375Z,99.90
2017-07-30T01:32:50.039Z,99.90
2017-07-30T01:35:18.466Z,99.90
2017-07-30T01:37:46.898Z,99.90
2017-07-30T01:40:15.383Z,99.90
2017-07-30T01:42:43.866Z,99.90
2017-07-30T01:45:12.311Z,99.90
2017-07-30T01:47:41.611Z,99.90
2017-07-30T01:50:10.803Z,99.90
2017-07-30T01:52:40.019Z,99.90
2017-07-30T01:55:08.090Z,99.90
2017-07-30T01:57:36.978Z,99.90
2017-07-30T02:00:05.824Z,99.90
2017-07-30T02:02:34.255Z,99.90
2017-07-30T02:05:03.456Z,99.90
2017-07-30T02:07:31.883Z,99.90
2017-07-30T02:10:00.311Z,99.90
2017-07-30T02:12:29.606Z,99.90
2017-07-30T02:14:58.801Z,99.90
2017-07-30T02:17:27.914Z,99.90
2017-07-30T02:19:57.103Z,99.90
2017-07-30T02:22:26.298Z,99.90
2017-07-30T02:24:55.482Z,99.90
2017-07-30T02:27:24.090Z,99.90
2017-07-30T02:29:53.278Z,99.90
2017-07-30T02:32:22.466Z,99.90
2017-07-30T02:34:50.918Z,99.90
2017-07-30T02:37:19.319Z,99.90
2017-07-30T02:39:47.742Z,99.90
2017-07-30T02:42:16.179Z,99.90
2017-07-30T02:44:44.706Z,99.90
2017-07-30T02:47:13.187Z,99.90
2017-07-30T02:49:41.640Z,99.90
2017-07-30T02:52:10.762Z,99.90
2017-07-30T02:54:39.182Z,99.90
2017-07-30T02:57:07.601Z,99.90
2017-07-30T02:59:36.156Z,99.90
2017-07-30T03:02:04.594Z,99.90
2017-07-30T03:04:33.025Z,99.90
2017-07-30T03:07:01.458Z,99.90
2017-07-30T03:09:30.645Z,99.90
2017-07-30T03:11:59.955Z,99.90
2017-07-30T03:14:29.126Z,99.90
2017-07-30T03:16:57.590Z,99.90
2017-07-30T03:19:26.007Z,99.90
2017-07-30T03:21:55.224Z,99.90
2017-07-30T03:24:23.642Z,99.90
2017-07-30T03:26:52.062Z,99.90
2017-07-30T03:29:21.190Z,99.90
2017-07-30T03:31:49.618Z,99.90
2017-07-30T03:34:18.050Z,99.90
2017-07-30T03:36:46.487Z,99.90
2017-07-30T03:39:14.911Z,99.90
2017-07-30T03:41:43.360Z,99.90
2017-07-30T03:44:11.763Z,99.90
2017-07-30T03:46:40.199Z,99.90
2017-07-30T03:49:08.619Z,99.90
2017-07-30T03:51:37.815Z,99.90
2017-07-30T03:54:06.660Z,99.90
2017-07-30T03:56:35.075Z,99.90
2017-07-30T03:59:03.550Z,99.90
2017-07-30T04:01:32.652Z,99.90
2017-07-30T04:04:01.082Z,99.90
2017-07-30T04:06:29.547Z,99.90
2017-07-30T04:08:57.982Z,99.90
2017-07-30T04:11:26.407Z,99.90
2017-07-30T04:13:54.835Z,99.90
2017-07-30T04:16:23.259Z,99.90
2017-07-30T04:18:51.686Z,99.90
2017-07-30T04:21:20.142Z,99.90
2017-07-30T04:23:48.559Z,99.90
2017-07-30T04:26:17.011Z,99.90
2017-07-30T04:28:46.882Z,99.90
2017-07-30T04:31:16.080Z,99.90
2017-07-30T04:33:45.294Z,99.90
2017-07-30T04:36:14.475Z,99.90
2017-07-30T04:38:42.970Z,99.90
2017-07-30T04:41:12.167Z,99.90
2017-07-30T04:43:41.368Z,99.90
2017-07-30T04:46:10.485Z,99.90
2017-07-30T04:48:38.976Z,99.90
2017-07-30T04:51:07.399Z,99.90
2017-07-30T04:53:35.912Z,99.90
2017-07-30T04:56:05.131Z,99.90
2017-07-30T04:58:33.603Z,99.90
2017-07-30T05:01:02.806Z,99.90
2017-07-30T05:03:31.230Z,99.90
2017-07-30T05:05:59.667Z,99.90
2017-07-30T05:08:28.791Z,99.90
2017-07-30T05:10:57.227Z,99.90
2017-07-30T05:13:26.410Z,99.90
2017-07-30T05:15:54.862Z,99.90
2017-07-30T05:18:23.292Z,99.90
2017-07-30T05:20:52.530Z,99.90
2017-07-30T05:23:20.971Z,99.90
2017-07-30T05:25:50.166Z,99.90
2017-07-30T05:28:18.597Z,99.90
2017-07-30T05:30:47.026Z,99.90
2017-07-30T05:33:15.463Z,99.90
2017-07-30T05:35:43.879Z,99.90
2017-07-30T05:38:13.031Z,99.90
2017-07-30T05:40:41.459Z,99.90
2017-07-30T05:43:10.699Z,99.90
2017-07-30T05:45:39.120Z,99.90
2017-07-30T05:48:07.550Z,99.90
2017-07-30T05:50:36.739Z,99.90
2017-07-30T05:53:05.920Z,99.90
2017-07-30T05:55:34.368Z,99.90
2017-07-30T05:58:02.786Z,99.90
2017-07-30T06:00:31.924Z,99.90
2017-07-30T06:03:00.348Z,99.90
2017-07-30T06:05:28.771Z,99.90
2017-07-30T06:07:57.976Z,99.90
2017-07-30T06:10:26.419Z,99.90
2017-07-30T06:12:54.868Z,99.90
2017-07-30T06:15:23.415Z,99.90
2017-07-30T06:17:52.614Z,99.90
2017-07-30T06:20:21.840Z,99.90
2017-07-30T06:22:50.283Z,99.90
2017-07-30T06:25:19.475Z,99.90
2017-07-30T06:27:47.928Z,99.90
2017-07-30T06:30:16.354Z,99.90
2017-07-30T06:32:45.554Z,99.90
2017-07-30T06:35:14.770Z,99.90
2017-07-30T06:37:43.251Z,99.90
2017-07-30T06:40:11.733Z,99.90
2017-07-30T06:42:40.935Z,99.90
2017-07-30T06:45:09.371Z,99.90
2017-07-30T06:47:37.781Z,99.90
2017-07-30T06:50:06.312Z,99.90
2017-07-30T06:52:34.855Z,99.90
2017-07-30T06:55:03.278Z,99.90
2017-07-30T06:57:31.717Z,99.90
2017-07-30T07:00:00.140Z,99.90
2017-07-30T07:02:28.558Z,99.90
2017-07-30T07:04:57.764Z,99.90
2017-07-30T07:07:27.815Z,99.90
2017-07-30T07:09:56.278Z,99.90
2017-07-30T07:12:24.747Z,99.90
2017-07-30T07:14:53.967Z,99.90
2017-07-30T07:17:22.409Z,99.90
2017-07-30T07:19:50.837Z,99.90
2017-07-30T07:22:19.952Z,99.90
2017-07-30T07:24:48.378Z,99.90
2017-07-30T07:27:16.818Z,99.90
2017-07-30T07:29:45.235Z,99.90
2017-07-30T07:32:13.693Z,99.90
2017-07-30T07:34:42.161Z,99.90
2017-07-30T07:37:10.567Z,99.90
2017-07-30T07:39:39.067Z,99.90
2017-07-30T07:42:07.488Z,99.90
2017-07-30T07:44:35.943Z,99.90
2017-07-30T07:47:05.259Z,99.90
2017-07-30T07:49:33.684Z,99.90
2017-07-30T07:52:02.155Z,99.90
2017-07-30T07:54:30.612Z,99.90
2017-07-30T07:56:59.024Z,99.90
2017-07-30T07:59:27.469Z,99.90
2017-07-30T08:01:55.907Z,99.90
2017-07-30T08:04:24.339Z,99.90
2017-07-30T08:06:52.763Z,99.90
2017-07-30T08:09:21.171Z,99.90
2017-07-30T08:11:49.607Z,99.90
2017-07-30T08:14:18.042Z,99.90
2017-07-30T08:16:47.332Z,99.90
2017-07-30T08:19:16.559Z,99.90
2017-07-30T08:21:45.537Z,99.90
2017-07-30T08:24:14.635Z,99.90
2017-07-30T08:26:43.970Z,99.90
2017-07-30T08:29:12.878Z,99.90
2017-07-30T08:31:41.348Z,99.90
2017-07-30T08:34:09.761Z,99.90
2017-07-30T08:36:38.904Z,99.90
2017-07-30T08:39:07.380Z,99.90
2017-07-30T08:41:35.815Z,99.90
2017-07-30T08:44:04.271Z,99.90
2017-07-30T08:46:32.717Z,99.90
2017-07-30T08:49:01.159Z,99.90
2017-07-30T08:51:29.587Z,99.90
2017-07-30T08:53:58.026Z,99.90
2017-07-30T08:56:26.471Z,99.90
2017-07-30T08:58:54.973Z,99.90
2017-07-30T09:01:23.423Z,99.90
2017-07-30T09:03:51.843Z,99.90
2017-07-30T09:06:20.344Z,99.90
2017-07-30T09:08:48.773Z,99.90
2017-07-30T09:11:17.230Z,99.90
2017-07-30T09:13:45.671Z,99.90
2017-07-30T09:16:14.090Z,99.90
2017-07-30T09:18:42.534Z,99.90
2017-07-30T09:21:10.959Z,99.90
2017-07-30T09:23:39.406Z,99.90
2017-07-30T09:26:07.839Z,99.90
2017-07-30T09:28:36.288Z,99.90
2017-07-30T09:31:04.743Z,99.90
2017-07-30T09:33:33.188Z,99.90
2017-07-30T09:36:01.626Z,99.90
2017-07-30T09:38:30.083Z,99.90
2017-07-30T09:40:58.533Z,99.90
2017-07-30T09:43:27.025Z,99.90
2017-07-30T09:45:55.479Z,99.90
2017-07-30T09:48:23.932Z,99.90
2017-07-30T09:50:52.375Z,99.90
2017-07-30T09:53:20.832Z,99.90
2017-07-30T09:55:49.275Z,99.90
2017-07-30T09:58:17.716Z,99.90
2017-07-30T10:00:45.954Z,99.90
2017-07-30T10:03:15.212Z,99.90
2017-07-30T10:05:43.642Z,99.90
2017-07-30T10:08:12.857Z,99.90
2017-07-30T10:10:41.302Z,99.90
2017-07-30T10:13:09.750Z,99.90
2017-07-30T10:15:38.218Z,99.90
2017-07-30T10:18:06.687Z,99.90
2017-07-30T10:20:35.134Z,99.90
2017-07-30T10:23:03.582Z,99.90
2017-07-30T10:25:31.685Z,99.90
2017-07-30T10:28:00.133Z,99.90
2017-07-30T10:30:28.568Z,99.90
2017-07-30T10:32:56.989Z,99.90
2017-07-30T10:35:26.109Z,99.90
2017-07-30T10:37:54.542Z,99.90
2017-07-30T10:40:22.989Z,99.90
2017-07-30T10:42:51.432Z,99.90
2017-07-30T10:45:19.876Z,99.90
2017-07-30T10:47:48.314Z,99.90
2017-07-30T10:50:16.751Z,99.90
2017-07-30T10:52:45.184Z,99.90
2017-07-30T10:55:13.669Z,99.90
2017-07-30T10:57:42.156Z,99.90
2017-07-30T11:00:10.242Z,99.90
2017-07-30T11:02:40.207Z,99.90
2017-07-30T11:05:08.654Z,99.90
2017-07-30T11:07:37.842Z,99.90
2017-07-30T11:10:07.083Z,99.90
2017-07-30T11:12:35.498Z,99.90
2017-07-30T11:15:03.950Z,99.90
2017-07-30T11:17:32.371Z,99.90
2017-07-30T11:20:00.965Z,99.90
2017-07-30T11:22:29.507Z,99.90
2017-07-30T11:24:57.939Z,99.90
2017-07-30T11:27:27.131Z,99.90
2017-07-30T11:29:56.360Z,99.90
2017-07-30T11:32:25.502Z,99.90
2017-07-30T11:34:53.942Z,99.90
2017-07-30T11:37:23.099Z,99.90
2017-07-30T11:39:51.548Z,99.90
2017-07-30T11:42:20.003Z,99.90
2017-07-30T11:44:48.423Z,99.90
2017-07-30T11:47:16.855Z,99.90
2017-07-30T11:49:45.299Z,99.90
2017-07-30T11:52:13.736Z,99.90
2017-07-30T11:54:42.194Z,99.90
2017-07-30T11:57:10.622Z,99.90
2017-07-30T11:59:39.049Z,99.90
2017-07-30T12:02:07.491Z,99.90
2017-07-30T12:04:36.620Z,99.90
2017-07-30T12:07:05.059Z,99.90
2017-07-30T12:09:33.502Z,99.90
2017-07-30T12:12:01.935Z,99.90
2017-07-30T12:14:30.362Z,99.90
2017-07-30T12:16:58.817Z,99.90
2017-07-30T12:19:27.268Z,99.90
2017-07-30T12:21:55.689Z,99.90
2017-07-30T12:24:24.154Z,99.90
2017-07-30T12:26:52.571Z,99.90
2017-07-30T12:29:21.026Z,99.90
2017-07-30T12:31:49.439Z,99.90
2017-07-30T12:34:17.883Z,99.90
2017-07-30T12:36:46.316Z,99.90
2017-07-30T12:39:14.756Z,99.90
2017-07-30T12:41:43.195Z,99.90
2017-07-30T12:44:11.619Z,99.90
2017-07-30T12:46:40.060Z,99.90
2017-07-30T12:49:08.514Z,99.90
2017-07-30T12:51:36.934Z,99.90
2017-07-30T12:54:05.402Z,99.90
2017-07-30T12:56:33.807Z,99.90
2017-07-30T12:59:02.265Z,99.90
2017-07-30T13:01:30.501Z,99.90
2017-07-30T13:03:59.699Z,99.90
2017-07-30T13:06:28.918Z,99.90
2017-07-30T13:08:57.507Z,99.90
2017-07-30T13:11:26.070Z,99.90
2017-07-30T13:13:55.270Z,99.90
2017-07-30T13:16:24.488Z,99.50
2017-07-30T13:18:52.923Z,99.40
2017-07-30T13:21:21.375Z,99.90
2017-07-30T13:23:49.960Z,99.90
2017-07-30T13:26:19.252Z,95.90
2017-07-30T13:28:48.350Z,94.40
2017-07-30T13:31:16.859Z,93.20
2017-07-30T13:33:45.290Z,94.50
2017-07-30T13:36:13.736Z,97.10
2017-07-30T13:38:42.164Z,94.90
2017-07-30T13:41:10.650Z,94.60
2017-07-30T13:43:39.834Z,99.00
2017-07-30T13:46:08.126Z,99.00
2017-07-30T13:48:37.999Z,93.50
2017-07-30T13:51:07.211Z,94.90
2017-07-30T13:53:36.526Z,93.80
2017-07-30T13:56:04.963Z,93.80
2017-07-30T13:58:33.406Z,94.70
2017-07-30T14:01:01.831Z,95.20
2017-07-30T14:03:30.271Z,95.90
2017-07-30T14:05:58.757Z,95.50
2017-07-30T14:08:27.179Z,96.30
2017-07-30T14:10:55.623Z,96.80
2017-07-30T14:13:23.870Z,95.70
2017-07-30T14:15:52.586Z,96.00
2017-07-30T14:18:21.147Z,97.40
2017-07-30T14:20:49.583Z,97.60
2017-07-30T14:23:18.036Z,98.20
2017-07-30T14:25:46.449Z,98.30
2017-07-30T14:28:14.928Z,98.10
2017-07-30T14:30:43.352Z,98.60
2017-07-30T14:33:11.800Z,99.10
2017-07-30T14:35:40.235Z,99.80
2017-07-30T14:38:08.671Z,99.90
2017-07-30T14:40:37.895Z,99.90
2017-07-30T14:43:06.323Z,99.90
2017-07-30T14:45:34.738Z,99.90
2017-07-30T14:48:03.954Z,99.90
2017-07-30T14:50:32.436Z,99.90
2017-07-30T14:53:00.883Z,99.90
2017-07-30T14:55:29.365Z,99.90
2017-07-30T14:57:57.825Z,99.90
2017-07-30T15:00:26.884Z,99.90
2017-07-30T15:02:55.343Z,99.90
2017-07-30T15:05:23.883Z,99.90
2017-07-30T15:07:52.419Z,99.90
2017-07-30T15:10:20.854Z,99.90
2017-07-30T15:12:49.384Z,99.90
2017-07-30T15:15:17.842Z,99.90
2017-07-30T15:17:46.289Z,99.90
2017-07-30T15:20:15.404Z,99.90
2017-07-30T15:22:43.851Z,99.90
2017-07-30T15:25:12.284Z,99.90
2017-07-30T15:27:40.513Z,99.90
2017-07-30T15:30:08.762Z,99.90
2017-07-30T15:32:37.813Z,99.90
2017-07-30T15:35:06.251Z,99.90
2017-07-30T15:37:34.544Z,99.30
2017-07-30T15:40:02.992Z,99.90
2017-07-30T15:42:32.187Z,99.30
2017-07-30T15:45:01.515Z,99.90
2017-07-30T15:47:29.943Z,99.90
2017-07-30T15:49:58.470Z,97.70
2017-07-30T15:52:27.682Z,99.90
2017-07-30T15:54:56.117Z,99.90
2017-07-30T15:57:24.553Z,99.90
2017-07-30T15:59:52.978Z,99.00
2017-07-30T16:02:22.179Z,98.20
2017-07-30T16:04:50.635Z,98.20
2017-07-30T16:07:19.821Z,97.40
2017-07-30T16:09:48.245Z,96.10
2017-07-30T16:12:16.768Z,99.90
2017-07-30T16:14:45.181Z,96.40
2017-07-30T16:17:13.840Z,97.50
2017-07-30T16:19:42.285Z,97.60
2017-07-30T16:22:11.607Z,98.20
2017-07-30T16:24:40.078Z,97.90
2017-07-30T16:27:08.500Z,99.00
2017-07-30T16:29:36.948Z,98.90
2017-07-30T16:32:06.251Z,98.40
2017-07-30T16:34:34.699Z,98.20
2017-07-30T16:37:03.128Z,97.90
2017-07-30T16:39:31.562Z,95.70
2017-07-30T16:41:59.991Z,95.20
2017-07-30T16:44:28.442Z,95.20
2017-07-30T16:46:57.671Z,95.70
2017-07-30T16:49:26.107Z,95.90
2017-07-30T16:51:55.235Z,95.60
2017-07-30T16:54:24.455Z,97.20
2017-07-30T16:56:52.887Z,96.90
2017-07-30T16:59:21.312Z,95.60
2017-07-30T17:01:49.774Z,98.10
2017-07-30T17:04:18.967Z,97.50
2017-07-30T17:06:48.259Z,97.70
2017-07-30T17:09:16.699Z,97.40
2017-07-30T17:11:45.128Z,94.80
2017-07-30T17:14:14.345Z,95.70
2017-07-30T17:16:42.795Z,95.70
2017-07-30T17:19:11.251Z,95.80
2017-07-30T17:21:39.687Z,98.20
2017-07-30T17:24:08.129Z,99.90
2017-07-30T17:26:36.572Z,98.10
2017-07-30T17:29:05.006Z,97.90
2017-07-30T17:31:33.502Z,99.00
2017-07-30T17:34:02.707Z,99.90
2017-07-30T17:36:32.147Z,99.90
2017-07-30T17:39:00.588Z,99.90
2017-07-30T17:41:29.979Z,99.90
2017-07-30T17:43:58.436Z,99.90
2017-07-30T17:46:26.851Z,99.90
2017-07-30T17:48:55.308Z,99.90
2017-07-30T17:51:23.767Z,99.90
2017-07-30T17:53:52.226Z,99.90
2017-07-30T17:56:20.691Z,99.90
2017-07-30T17:58:49.889Z,99.90
2017-07-30T18:01:18.399Z,99.90
2017-07-30T18:03:46.923Z,99.90
2017-07-30T18:06:15.450Z,99.90
2017-07-30T18:08:43.909Z,99.90
2017-07-30T18:11:12.359Z,99.90
2017-07-30T18:13:40.853Z,99.90
2017-07-30T18:16:09.280Z,99.90
2017-07-30T18:18:37.739Z,99.90
2017-07-30T18:21:06.165Z,99.90
2017-07-30T18:23:34.610Z,99.90
2017-07-30T18:26:03.898Z,99.90
2017-07-30T18:28:32.354Z,99.90
2017-07-30T18:31:00.796Z,99.90
2017-07-30T18:33:29.222Z,99.90
2017-07-30T18:35:57.772Z,99.90
2017-07-30T18:38:26.206Z,99.90
2017-07-30T18:40:54.699Z,99.90
2017-07-30T18:43:23.133Z,99.90
2017-07-30T18:45:51.567Z,99.90
2017-07-30T18:48:20.782Z,99.90
2017-07-30T18:50:49.243Z,99.90
2017-07-30T18:53:18.458Z,99.90
2017-07-30T18:55:46.965Z,99.90
2017-07-30T18:58:15.416Z,99.90
2017-07-30T19:00:44.268Z,99.90
2017-07-30T19:03:12.716Z,99.90
2017-07-30T19:05:41.177Z,99.90
2017-07-30T19:08:10.370Z,99.90
2017-07-30T19:10:39.596Z,99.90
2017-07-30T19:13:08.039Z,99.90
2017-07-30T19:15:37.379Z,99.90
2017-07-30T19:18:05.820Z,99.90
2017-07-30T19:20:35.048Z,99.90
2017-07-30T19:23:03.523Z,99.90
2017-07-30T19:25:32.845Z,99.90
2017-07-30T19:28:01.302Z,99.90
2017-07-30T19:30:29.735Z,99.90
2017-07-30T19:32:58.203Z,99.90
2017-07-30T19:35:26.666Z,99.90
2017-07-30T19:37:54.911Z,99.90
2017-07-30T19:40:24.125Z,99.90
2017-07-30T19:42:52.631Z,99.90
2017-07-30T19:45:20.887Z,99.90
2017-07-30T19:47:49.352Z,99.90
2017-07-30T19:50:18.563Z,99.90
2017-07-30T19:52:47.779Z,99.90
2017-07-30T19:55:17.094Z,99.90
2017-07-30T19:57:45.527Z,99.90
2017-07-30T20:00:14.735Z,99.90
2017-07-30T20:02:44.012Z,99.90
2017-07-30T20:05:12.475Z,99.90
2017-07-30T20:07:40.910Z,99.90
2017-07-30T20:10:09.347Z,99.90
2017-07-30T20:12:37.986Z,99.90
2017-07-30T20:15:06.429Z,99.90
2017-07-30T20:17:35.247Z,99.90
2017-07-30T20:20:04.488Z,99.90
2017-07-30T20:22:33.584Z,99.90
2017-07-30T20:25:03.174Z,99.90
2017-07-30T20:27:31.619Z,99.90
2017-07-30T20:30:00.874Z,99.90
2017-07-30T20:32:30.026Z,99.90
2017-07-30T20:34:59.254Z,99.90
2017-07-30T20:37:27.709Z,99.90
2017-07-30T20:39:56.914Z,99.90
2017-07-30T20:42:25.370Z,99.90
2017-07-30T20:44:54.502Z,99.90
2017-07-30T20:47:22.939Z,99.90
2017-07-30T20:49:51.390Z,99.90
2017-07-30T20:52:19.832Z,99.90
2017-07-30T20:54:49.168Z,99.90
2017-07-30T20:57:17.734Z,99.90
2017-07-30T20:59:46.199Z,99.90
2017-07-30T21:02:15.455Z,99.90
2017-07-30T21:04:44.568Z,99.90
2017-07-30T21:07:13.043Z,99.90
2017-07-30T21:09:41.619Z,99.90
2017-07-30T21:12:10.748Z,99.90
2017-07-30T21:14:39.211Z,99.90
2017-07-30T21:17:07.646Z,99.90
2017-07-30T21:19:36.139Z,99.90
2017-07-30T21:22:04.576Z,99.90
2017-07-30T21:24:33.087Z,99.90
2017-07-30T21:27:01.626Z,99.90
2017-07-30T21:29:30.270Z,99.90
2017-07-30T21:31:58.740Z,99.90
2017-07-30T21:34:27.915Z,99.90
2017-07-30T21:36:57.112Z,99.90
2017-07-30T21:39:26.320Z,99.90
2017-07-30T21:41:55.639Z,99.90
2017-07-30T21:44:24.090Z,99.90
2017-07-30T21:46:52.599Z,99.90
2017-07-30T21:49:21.100Z,99.90
2017-07-30T21:51:49.530Z,99.90
2017-07-30T21:54:17.994Z,99.90
2017-07-30T21:56:46.406Z,99.90
2017-07-30T21:59:15.586Z,99.90
2017-07-30T22:01:44.033Z,99.90
2017-07-30T22:04:12.482Z,99.90
2017-07-30T22:06:41.621Z,99.90
2017-07-30T22:09:10.183Z,99.90
2017-07-30T22:11:38.618Z,99.90
2017-07-30T22:14:07.046Z,99.90
2017-07-30T22:16:35.529Z,99.90
2017-07-30T22:19:05.424Z,99.90
2017-07-30T22:21:34.552Z,99.90
2017-07-30T22:24:03.024Z,99.90
2017-07-30T22:26:31.447Z,99.90
2017-07-30T22:28:59.907Z,99.90
2017-07-30T22:31:28.323Z,99.90
2017-07-30T22:33:56.748Z,99.90
2017-07-30T22:36:25.193Z,99.90
2017-07-30T22:38:53.637Z,99.90
2017-07-30T22:41:22.058Z,99.90
2017-07-30T22:43:51.269Z,99.90
2017-07-30T22:46:20.486Z,99.90
2017-07-30T22:48:48.923Z,99.90
2017-07-30T22:51:17.351Z,99.90
2017-07-30T22:53:45.798Z,99.90
2017-07-30T22:56:14.225Z,99.90
2017-07-30T22:58:42.678Z,99.90
2017-07-30T23:01:11.870Z,99.90
2017-07-30T23:03:41.053Z,99.90
2017-07-30T23:06:09.515Z,99.90
2017-07-30T23:08:37.947Z,99.90
2017-07-30T23:11:07.129Z,99.90
2017-07-30T23:13:36.346Z,99.90
2017-07-30T23:16:05.545Z,99.90
2017-07-30T23:18:34.668Z,99.90
2017-07-30T23:21:04.590Z,99.90
2017-07-30T23:23:33.054Z,99.90
2017-07-30T23:26:01.470Z,99.90
2017-07-30T23:28:29.902Z,99.90
2017-07-30T23:30:58.345Z,99.90
2017-07-30T23:33:26.783Z,99.90
2017-07-30T23:35:55.215Z,99.90
2017-07-30T23:38:23.743Z,99.90
2017-07-30T23:40:52.171Z,99.90
2017-07-30T23:43:20.615Z,99.90
2017-07-30T23:45:49.042Z,99.90
2017-07-30T23:48:17.495Z,99.90
2017-07-30T23:50:45.963Z,99.90
2017-07-30T23:53:14.379Z,99.90
2017-07-30T23:55:42.830Z,99.90
2017-07-30T23:58:11.263Z,99.90
